Herlong Airport


Codes: KHEG/
Name: Herlong Airport
City: Jacksonville
Country: United States
Elevation: 87 ft.

Photos at Herlong Airport


   Photos courtesy of SpottingLog. You can add your own sightings and photos by signing up for a free trial today.



No photos found.

Weather at Herlong Airport


Time (UTC)DescriptionTempratureWindCloud coverageVisibilityPressureHumidity
13-Jun-2024 03:00Scattered Clouds27°C7 mph, NE27%10000m1012hPa77%
13-Jun-2024 06:00Light Rain26°C4 mph, NE41%10000m1012hPa85%
13-Jun-2024 09:00Light Rain24°C4 mph, N99%10000m1012hPa93%
13-Jun-2024 12:00Light Rain25°C4 mph, N74%10000m1013hPa89%
13-Jun-2024 15:00Few Clouds32°C4 mph, N19%10000m1013hPa50%
13-Jun-2024 18:00Few Clouds36°C7 mph, NE14%10000m1012hPa32%
13-Jun-2024 21:00Broken Clouds33°C11 mph, NE69%10000m1011hPa41%
14-Jun-2024 00:00Broken Clouds30°C7 mph, NE62%10000m1012hPa40%
14-Jun-2024 03:00Few Clouds27°C4 mph, E12%10000m1014hPa62%
14-Jun-2024 06:00Clear Sky26°C2 mph, NE10%10000m1013hPa72%
14-Jun-2024 09:00Clear Sky25°C2 mph, NW5%10000m1013hPa79%
14-Jun-2024 12:00Clear Sky26°C4 mph, N3%10000m1014hPa75%
14-Jun-2024 15:00Clear Sky32°C7 mph, N0%10000m1014hPa44%
14-Jun-2024 18:00Clear Sky37°C7 mph, NE4%10000m1011hPa29%
14-Jun-2024 21:00Broken Clouds34°C13 mph, NE53%10000m1011hPa37%
15-Jun-2024 00:00Few Clouds30°C9 mph, E23%10000m1012hPa46%
15-Jun-2024 03:00Clear Sky27°C4 mph, SE8%10000m1014hPa70%
15-Jun-2024 06:00Few Clouds26°C4 mph, S14%10000m1013hPa74%
15-Jun-2024 09:00Clear Sky25°C2 mph, SW3%10000m1013hPa78%
15-Jun-2024 12:00Clear Sky27°C2 mph, NW2%10000m1014hPa67%
15-Jun-2024 15:00Clear Sky34°C4 mph, NE0%10000m1014hPa35%
15-Jun-2024 18:00Clear Sky38°C11 mph, E0%10000m1013hPa23%
15-Jun-2024 21:00Clear Sky36°C13 mph, E2%10000m1012hPa26%
16-Jun-2024 00:00Clear Sky31°C9 mph, E1%10000m1014hPa48%
16-Jun-2024 03:00Broken Clouds27°C7 mph, S75%10000m1016hPa71%
16-Jun-2024 06:00Broken Clouds26°C2 mph, SE52%10000m1016hPa78%
16-Jun-2024 09:00Scattered Clouds25°C2 mph, E50%10000m1016hPa83%
16-Jun-2024 12:00Broken Clouds27°C4 mph, NE77%10000m1017hPa76%
16-Jun-2024 15:00Overcast Clouds33°C11 mph, E91%10000m1017hPa45%
16-Jun-2024 18:00Overcast Clouds34°C13 mph, E93%10000m1017hPa40%
16-Jun-2024 21:00Overcast Clouds33°C13 mph, E99%10000m1017hPa43%
17-Jun-2024 00:00Overcast Clouds29°C9 mph, E100%10000m1018hPa59%
17-Jun-2024 03:00Overcast Clouds27°C9 mph, E96%10000m1019hPa70%
17-Jun-2024 06:00Overcast Clouds26°C4 mph, E89%10000m1018hPa76%
17-Jun-2024 09:00Broken Clouds25°C4 mph, NE65%10000m1018hPa79%
17-Jun-2024 12:00Broken Clouds27°C9 mph, E82%10000m1018hPa76%
17-Jun-2024 15:00Overcast Clouds31°C11 mph, E99%10000m1019hPa53%
17-Jun-2024 18:00Light Rain32°C13 mph, E99%10000m1018hPa49%
17-Jun-2024 21:00Light Rain29°C11 mph, E97%10000m1017hPa65%
18-Jun-2024 00:00Moderate Rain26°C9 mph, E59%10000m1018hPa84%